KTHV/THV METAR and TAF weather

Enter ICAO airport designator
Station Type Date Time Source
KTHV METAR 2022/06/30 00:53 UTC NOAA

KTHV 300053Z AUTO 00000KT 10SM CLR 21/16 A3018 RMK AO2 SLP221 T02110156


Station Type Date Time Source
KTHV Decoded METAR 2022/06/30 00:53 UTC NOAA

YORK AIRPORT, PA, United States (KTHV) 39-55N 076-53W 144M
Jun 29, 2022 - 08:53 PM EDT / 2022.06.30 0053 UTC
Wind: Calm:0
Visibility: 10 mile(s):0
Sky conditions: clear
Temperature: 70.0 F (21.1 C)
Dew Point: 60.1 F (15.6 C)
Relative Humidity: 70%
Pressure (altimeter): 30.18 in. Hg (1022 hPa)
ob: KTHV 300053Z AUTO 00000KT 10SM CLR 21/16 A3018 RMK AO2 SLP221 T02110156
cycle: 1

Station Type Date Time Source
KTHV TAF UTC NOAA

Error!

Example: see airport list